Time;durP1;ratioP1;P1;durP2;ratioP2;P2;SDS_P1;SDS_P2;PMS_P1;PMS_P2;Temp;Humidity;BMP_temperature;BMP_pressure;BME280_temperature;BME280_humidity;BME280_pressure;Samples;Min_cycle;Max_cycle;Signal;HPM_P1;HPM_P2
2022/07/02 00:02:24;;;;;;;10.15;6.05;;;;;;;15.84;67.00;102111.00;5011147;28;20044;-53
2022/07/02 00:05:05;;;;;;;11.25;6.22;;;;;;;15.82;67.32;102108.34;5008625;28;20449;-52
2022/07/02 00:07:30;;;;;;;9.52;5.82;;;;;;;15.81;67.16;102109.22;5011663;28;20128;-53
2022/07/02 00:09:58;;;;;;;10.35;5.15;;;;;;;15.78;67.34;102119.63;5012409;28;20481;-52
2022/07/02 00:12:24;;;;;;;10.68;6.15;;;;;;;15.76;67.18;102112.56;5011631;28;20045;-52
2022/07/02 00:14:53;;;;;;;12.50;5.85;;;;;;;15.74;66.92;102107.25;5010117;28;20414;-52
2022/07/02 00:17:19;;;;;;;8.73;5.18;;;;;;;15.70;67.78;102108.03;5011222;28;20030;-53
2022/07/02 00:19:44;;;;;;;7.70;5.35;;;;;;;15.67;67.83;102107.97;5010303;28;20034;-52
2022/07/02 00:22:10;;;;;;;9.57;6.32;;;;;;;15.64;67.78;102106.16;5010654;28;20037;-53
2022/07/02 00:24:39;;;;;;;10.00;6.82;;;;;;;15.63;67.50;102109.63;5011077;28;20045;-54
2022/07/02 00:27:08;;;;;;;10.98;6.43;;;;;;;15.59;67.32;102107.78;5011124;28;20493;-50
2022/07/02 00:29:41;;;;;;;10.15;5.43;;;;;;;15.57;67.39;102112.13;5010320;28;20440;-53
2022/07/02 00:32:07;;;;;;;11.35;6.07;;;;;;;15.54;68.15;102105.88;5009832;28;20033;-53
2022/07/02 00:34:36;;;;;;;8.18;5.80;;;;;;;15.50;68.32;102109.28;5011339;28;20029;-51
2022/07/02 00:37:02;;;;;;;8.70;5.65;;;;;;;15.46;68.28;102103.97;5009591;28;20030;-52
2022/07/02 00:39:28;;;;;;;8.85;5.60;;;;;;;15.44;68.16;102107.44;5010871;28;20034;-52
2022/07/02 00:41:54;;;;;;;7.97;4.95;;;;;;;15.39;69.76;102109.06;5011472;28;20075;-53
2022/07/02 00:44:22;;;;;;;9.27;6.03;;;;;;;15.36;69.02;102122.13;5012183;28;20493;-52
2022/07/02 00:46:48;;;;;;;8.60;6.07;;;;;;;15.32;69.06;102115.88;5011210;28;20052;-52
2022/07/02 00:49:13;;;;;;;9.23;5.72;;;;;;;15.27;69.76;102117.53;5010497;28;20037;-52
2022/07/02 00:51:38;;;;;;;8.70;5.45;;;;;;;15.25;69.64;102107.00;5010241;28;20027;-52
2022/07/02 00:54:04;;;;;;;10.38;6.10;;;;;;;15.24;69.54;102106.94;5009548;28;20116;-52
2022/07/02 00:56:29;;;;;;;10.80;5.50;;;;;;;15.16;70.63;102108.50;5011868;28;20020;-52
2022/07/02 00:58:55;;;;;;;8.57;5.43;;;;;;;15.14;70.22;102105.81;5010675;28;20033;-52
2022/07/02 01:01:20;;;;;;;9.45;5.57;;;;;;;15.11;70.69;102104.00;5009513;28;20026;-52
2022/07/02 01:03:49;;;;;;;9.63;5.57;;;;;;;15.09;70.21;102108.34;5009208;28;20417;-51
2022/07/02 01:06:17;;;;;;;8.00;5.78;;;;;;;15.05;69.68;102106.47;5007390;28;20033;-56
2022/07/02 01:11:30;;;;;;;10.50;5.50;;;;;;;14.98;70.21;102099.31;5007285;28;20040;-56
2022/07/02 01:13:57;;;;;;;9.55;5.38;;;;;;;14.92;69.63;102099.16;5004226;28;20034;-56
2022/07/02 01:16:22;;;;;;;7.70;5.30;;;;;;;14.88;70.65;102097.28;5008475;28;20029;-57
2022/07/02 01:18:47;;;;;;;6.78;4.95;;;;;;;14.88;69.92;102089.41;5009790;28;20048;-56
2022/07/02 01:21:12;;;;;;;9.05;5.47;;;;;;;14.82;70.54;102094.53;5008748;28;20029;-56
2022/07/02 01:23:38;;;;;;;7.57;5.20;;;;;;;14.80;70.82;102098.81;5010006;28;20030;-56
2022/07/02 01:26:03;;;;;;;8.70;5.10;;;;;;;14.77;71.20;102100.53;5010586;28;20537;-56
2022/07/02 01:28:29;;;;;;;10.13;5.40;;;;;;;14.75;70.67;102102.19;5009613;28;20541;-56
2022/07/02 01:30:54;;;;;;;7.72;5.05;;;;;;;14.72;70.89;102096.00;5008900;28;20540;-56
2022/07/02 01:33:19;;;;;;;7.90;4.78;;;;;;;14.64;71.29;102097.53;5009261;28;20528;-56
2022/07/02 01:35:45;;;;;;;8.00;5.03;;;;;;;14.60;71.09;102096.53;5008252;28;20026;-56
2022/07/02 01:38:10;;;;;;;8.30;5.13;;;;;;;14.56;71.15;102099.91;5009604;28;20465;-52
2022/07/02 01:40:36;;;;;;;8.48;5.30;;;;;;;14.50;71.34;102098.00;5008275;28;20052;-54
2022/07/02 01:43:02;;;;;;;7.47;5.28;;;;;;;14.46;71.50;102098.75;5010242;28;20034;-53
2022/07/02 01:45:27;;;;;;;10.43;6.13;;;;;;;14.44;70.98;102100.47;5006056;28;20087;-49
2022/07/02 01:47:52;;;;;;;9.10;5.50;;;;;;;14.40;71.45;102104.72;5008148;28;20111;-51
2022/07/02 01:50:18;;;;;;;7.53;5.32;;;;;;;14.37;71.42;102103.75;5008035;28;20052;-50
2022/07/02 01:52:43;;;;;;;9.23;5.70;;;;;;;14.35;70.93;102100.19;5008020;28;20033;-53
2022/07/02 01:55:09;;;;;;;7.97;5.47;;;;;;;14.33;71.40;102102.78;5009728;28;20034;-51
2022/07/02 01:57:35;;;;;;;8.77;5.55;;;;;;;14.30;71.79;102100.06;5009704;28;20068;-52
2022/07/02 02:00:10;;;;;;;8.30;5.43;;;;;;;14.27;71.42;102098.25;5009289;28;20038;-53
2022/07/02 02:02:36;;;;;;;10.35;5.15;;;;;;;14.24;71.47;102103.41;5006006;28;20532;-52
2022/07/02 02:05:01;;;;;;;11.55;5.22;;;;;;;14.21;71.88;102102.44;5006980;28;20142;-50
2022/07/02 02:07:28;;;;;;;9.73;5.63;;;;;;;14.15;72.01;102097.91;5008492;28;20095;-56
2022/07/02 02:09:53;;;;;;;8.30;5.63;;;;;;;14.13;72.11;102090.84;5008750;28;20052;-56
2022/07/02 02:12:20;;;;;;;8.25;5.50;;;;;;;14.08;72.36;102096.81;5010020;28;20491;-54
2022/07/02 02:14:46;;;;;;;8.63;5.20;;;;;;;14.08;72.40;102095.94;5009637;28;20176;-54
2022/07/02 02:17:11;;;;;;;7.55;4.97;;;;;;;14.03;73.07;102098.44;5007675;28;20695;-55
2022/07/02 02:19:36;;;;;;;11.77;5.97;;;;;;;14.02;73.21;102094.03;5006765;28;20033;-55
2022/07/02 02:22:02;;;;;;;8.15;5.13;;;;;;;13.99;72.87;102091.31;5009545;28;20061;-55
2022/07/02 02:24:27;;;;;;;8.75;5.45;;;;;;;13.97;72.76;102092.13;5010173;28;20470;-55
2022/07/02 02:26:52;;;;;;;11.05;5.65;;;;;;;13.98;73.57;102093.91;5009422;28;20038;-55
2022/07/02 02:29:18;;;;;;;10.35;5.03;;;;;;;13.96;73.61;102093.84;5009726;28;20529;-55
2022/07/02 02:31:43;;;;;;;11.35;5.55;;;;;;;13.95;74.04;102094.69;5009180;28;20030;-55
2022/07/02 02:34:09;;;;;;;6.78;5.20;;;;;;;13.93;74.18;102100.72;5004221;28;20108;-55
2022/07/02 02:36:34;;;;;;;8.30;5.25;;;;;;;13.91;73.86;102098.94;5006822;28;20112;-47
2022/07/02 02:38:59;;;;;;;10.10;5.18;;;;;;;13.91;73.88;102092.81;5009499;28;20029;-50
2022/07/02 02:41:25;;;;;;;9.35;5.53;;;;;;;13.88;74.97;102091.00;5008225;28;20056;-52
2022/07/02 02:43:50;;;;;;;10.05;5.53;;;;;;;13.89;74.84;102094.53;5009584;28;20036;-50
2022/07/02 02:46:16;;;;;;;9.32;5.85;;;;;;;13.89;75.26;102089.28;5010449;28;20064;-50
2022/07/02 02:48:42;;;;;;;9.48;5.47;;;;;;;13.90;74.82;102098.91;5008505;28;20044;-50
2022/07/02 02:51:08;;;;;;;8.48;5.80;;;;;;;13.91;75.07;102103.31;5008679;28;20109;-50
2022/07/02 02:53:34;;;;;;;7.63;5.35;;;;;;;13.89;75.18;102099.75;5005105;28;20041;-50
2022/07/02 02:56:00;;;;;;;10.52;5.97;;;;;;;13.90;75.07;102102.41;5009247;28;20041;-50
2022/07/02 02:58:26;;;;;;;11.82;6.25;;;;;;;13.89;75.87;102092.78;5007600;28;20117;-51
2022/07/02 03:00:52;;;;;;;12.52;6.20;;;;;;;13.91;76.09;102108.53;5009063;28;20104;-52
2022/07/02 03:03:18;;;;;;;11.10;5.93;;;;;;;13.93;75.58;102106.84;5008375;28;20033;-50
2022/07/02 03:05:43;;;;;;;10.95;6.75;;;;;;;13.94;75.47;102097.28;5008176;28;20060;-52
2022/07/02 03:08:08;;;;;;;12.00;6.82;;;;;;;13.96;75.47;102100.81;5008912;28;20055;-50
2022/07/02 03:10:34;;;;;;;9.85;6.10;;;;;;;13.94;75.85;102103.38;5008586;28;20400;-50
2022/07/02 03:12:59;;;;;;;8.45;6.22;;;;;;;13.94;76.10;102107.75;5003825;28;20022;-51
2022/07/02 03:15:25;;;;;;;11.55;6.43;;;;;;;13.94;75.51;102113.00;5008028;28;20026;-50
2022/07/02 03:17:50;;;;;;;11.35;6.25;;;;;;;13.94;75.01;102113.00;5008598;28;20034;-51
2022/07/02 03:20:15;;;;;;;11.00;6.47;;;;;;;13.91;75.20;102114.66;5008655;28;20034;-52
2022/07/02 03:22:41;;;;;;;10.00;6.25;;;;;;;13.90;75.10;102117.22;5008201;28;20026;-48
2022/07/02 03:25:07;;;;;;;10.25;6.78;;;;;;;13.89;74.94;102120.72;5009133;28;20169;-50
2022/07/02 03:27:33;;;;;;;11.13;6.43;;;;;;;13.87;74.75;102128.50;5006041;28;20025;-51
2022/07/02 03:29:58;;;;;;;9.98;6.03;;;;;;;13.84;75.20;102119.69;5008319;28;20424;-51
2022/07/02 03:32:28;;;;;;;11.88;6.20;;;;;;;13.83;75.32;102120.50;5007343;28;20014;-49
2022/07/02 03:34:54;;;;;;;14.15;7.13;;;;;;;13.82;75.19;102124.00;5003300;28;20046;-48
2022/07/02 03:37:23;;;;;;;11.82;6.90;;;;;;;13.82;74.89;102129.22;5009714;28;20033;-51
2022/07/02 03:39:48;;;;;;;10.38;6.20;;;;;;;13.81;75.37;102132.69;5012689;28;20112;-52
2022/07/02 03:42:14;;;;;;;8.38;6.38;;;;;;;13.80;75.49;102142.28;5011440;28;20041;-51
2022/07/02 03:44:39;;;;;;;8.95;6.32;;;;;;;13.79;75.58;102140.50;5012817;28;20374;-52
2022/07/02 03:47:04;;;;;;;8.35;6.18;;;;;;;13.80;75.92;102142.28;5009528;28;20038;-48
2022/07/02 03:49:30;;;;;;;9.85;6.45;;;;;;;13.79;76.01;102140.50;5012006;28;20030;-51
2022/07/02 03:51:55;;;;;;;9.93;6.50;;;;;;;13.79;76.56;102144.81;5012075;28;20152;-50
2022/07/02 03:54:20;;;;;;;10.50;6.05;;;;;;;13.80;76.22;102130.91;5011560;28;20389;-52
2022/07/02 03:56:45;;;;;;;12.77;6.93;;;;;;;13.82;75.77;102139.72;5010553;28;20080;-52
2022/07/02 03:59:11;;;;;;;11.57;6.60;;;;;;;13.81;75.99;102132.69;5011896;28;20125;-53
2022/07/02 04:01:36;;;;;;;11.35;6.75;;;;;;;13.79;76.23;102135.25;5012070;28;20029;-53
2022/07/02 04:04:01;;;;;;;13.82;6.35;;;;;;;13.79;76.03;102134.34;5010752;28;20069;-53
2022/07/02 04:06:27;;;;;;;12.98;6.88;;;;;;;13.78;76.31;102133.47;5010819;28;20030;-52
2022/07/02 04:08:52;;;;;;;11.73;6.80;;;;;;;13.79;76.30;102131.72;5012133;28;20408;-52
2022/07/02 04:11:17;;;;;;;10.55;6.85;;;;;;;13.80;76.77;102141.38;5011276;28;20048;-52
2022/07/02 04:13:43;;;;;;;11.30;6.30;;;;;;;13.79;76.40;102143.13;5011861;28;20112;-52
2022/07/02 04:16:08;;;;;;;11.02;6.30;;;;;;;13.80;76.96;102152.75;5012023;28;20040;-50
2022/07/02 04:18:33;;;;;;;11.52;6.38;;;;;;;13.81;76.57;102143.16;5008430;28;20388;-51
2022/07/02 04:20:59;;;;;;;14.65;7.13;;;;;;;13.80;76.41;102139.66;5008854;28;20025;-51
2022/07/02 04:23:24;;;;;;;12.73;7.22;;;;;;;13.81;76.00;102132.69;5009644;28;20484;-49
2022/07/02 04:25:49;;;;;;;10.73;6.88;;;;;;;13.80;76.21;102138.75;5011445;28;20030;-51
2022/07/02 04:28:14;;;;;;;11.15;7.20;;;;;;;13.82;75.64;102142.34;5011878;28;20030;-49
2022/07/02 04:30:40;;;;;;;12.43;7.15;;;;;;;13.83;75.95;102146.72;5010924;28;20030;-53
2022/07/02 04:33:05;;;;;;;11.93;6.95;;;;;;;13.83;75.54;102142.38;5010961;28;20101;-51
2022/07/02 04:35:31;;;;;;;12.02;6.70;;;;;;;13.85;75.92;102139.81;5011251;28;20464;-51
2022/07/02 04:37:56;;;;;;;12.60;6.75;;;;;;;13.87;75.84;102143.34;5009043;28;20036;-51
2022/07/02 04:40:22;;;;;;;13.15;7.28;;;;;;;13.88;75.89;102146.00;5011427;28;20041;-52
2022/07/02 04:42:47;;;;;;;10.88;6.60;;;;;;;13.90;76.46;102139.09;5010681;28;20026;-51
2022/07/02 04:45:13;;;;;;;13.75;7.55;;;;;;;13.92;76.21;102144.38;5011348;28;20025;-52
2022/07/02 04:47:38;;;;;;;13.07;7.22;;;;;;;13.92;76.32;102136.53;5009822;28;20022;-52
2022/07/02 04:50:04;;;;;;;12.90;6.93;;;;;;;13.94;76.36;102140.06;5007365;28;20022;-50
2022/07/02 04:52:29;;;;;;;15.40;7.25;;;;;;;13.96;76.43;102135.78;5009329;28;20500;-53
2022/07/02 04:54:54;;;;;;;13.23;7.32;;;;;;;13.98;76.74;102135.81;5010441;28;20404;-51
2022/07/02 04:57:20;;;;;;;12.60;7.28;;;;;;;14.00;76.32;102140.25;5010947;28;20167;-48
2022/07/02 04:59:45;;;;;;;13.35;7.20;;;;;;;14.00;77.03;102145.50;5010315;28;20140;-50
2022/07/02 05:02:11;;;;;;;13.55;7.45;;;;;;;14.03;76.57;102139.47;5011462;28;20041;-50
2022/07/02 05:04:37;;;;;;;13.52;7.35;;;;;;;14.05;76.99;102150.91;5005501;28;20056;-50
2022/07/02 05:07:02;;;;;;;16.25;6.95;;;;;;;14.06;76.45;102145.69;5009173;28;20034;-51
2022/07/02 05:09:28;;;;;;;13.57;7.55;;;;;;;14.07;76.09;102139.59;5010435;28;20053;-51
2022/07/02 05:11:53;;;;;;;11.88;7.40;;;;;;;14.09;76.83;102134.41;5011178;28;20485;-50
2022/07/02 05:14:18;;;;;;;11.63;7.70;;;;;;;14.09;77.21;102135.31;5009528;28;20029;-51
2022/07/02 05:16:44;;;;;;;13.27;7.25;;;;;;;14.12;76.87;102145.00;5009219;28;20392;-51
2022/07/02 05:19:09;;;;;;;15.75;7.45;;;;;;;14.14;76.90;102142.41;5010397;28;20111;-52
2022/07/02 05:21:36;;;;;;;9.60;6.97;;;;;;;14.14;77.50;102147.66;5009061;28;20037;-51
2022/07/02 05:24:01;;;;;;;12.43;7.40;;;;;;;14.16;77.79;102141.59;5010551;28;20037;-50
2022/07/02 05:26:27;;;;;;;13.55;6.85;;;;;;;14.19;77.64;102139.09;5009174;28;20453;-51
2022/07/02 05:28:52;;;;;;;11.98;7.40;;;;;;;14.22;77.32;102141.81;5008796;28;20018;-52
2022/07/02 05:31:17;;;;;;;9.45;6.70;;;;;;;14.23;77.35;102142.69;5008819;28;20026;-51
2022/07/02 05:33:42;;;;;;;12.43;6.72;;;;;;;14.25;76.89;102141.88;5009885;28;20030;-53
2022/07/02 05:36:08;;;;;;;12.80;6.75;;;;;;;14.28;77.26;102143.72;5010036;28;20493;-49
2022/07/02 05:38:33;;;;;;;14.02;7.20;;;;;;;14.31;77.26;102140.28;5008942;28;20037;-51
2022/07/02 05:40:58;;;;;;;16.90;7.47;;;;;;;14.33;77.32;102147.34;5009848;28;20097;-51
2022/07/02 05:43:24;;;;;;;15.73;6.97;;;;;;;14.35;77.20;102147.38;5008459;28;20489;-51
2022/07/02 05:45:49;;;;;;;13.65;6.68;;;;;;;14.37;77.07;102151.84;5008409;28;20076;-52
2022/07/02 05:48:14;;;;;;;15.50;6.55;;;;;;;14.38;77.35;102145.75;5009718;28;20044;-57
2022/07/02 05:50:40;;;;;;;12.60;6.47;;;;;;;14.43;77.78;102154.63;5008474;28;20113;-56
2022/07/02 05:53:05;;;;;;;15.60;6.60;;;;;;;14.48;77.39;102153.88;5007027;28;20021;-56
2022/07/02 05:55:30;;;;;;;10.48;5.85;;;;;;;14.51;76.11;102153.97;5009898;28;20030;-56
2022/07/02 05:57:56;;;;;;;10.77;6.13;;;;;;;14.57;76.43;102160.28;5007956;28;20037;-56
2022/07/02 06:00:21;;;;;;;10.48;5.65;;;;;;;14.60;76.40;102163.00;5008866;28;20096;-56
2022/07/02 06:02:46;;;;;;;10.07;5.50;;;;;;;14.67;76.90;102158.84;5009277;28;20045;-56
2022/07/02 06:07:55;;;;;;;13.07;5.38;;;;;;;14.79;74.88;102158.28;5009115;28;20049;-56
2022/07/02 06:10:21;;;;;;;9.48;4.70;;;;;;;14.87;74.92;102158.50;5010249;28;20033;-56
2022/07/02 06:12:48;;;;;;;8.63;4.55;;;;;;;14.92;74.01;102160.41;5008569;28;20177;-56
2022/07/02 06:15:14;;;;;;;11.70;4.35;;;;;;;15.01;73.22;102157.13;5010440;28;20036;-56
2022/07/02 06:17:40;;;;;;;7.10;3.60;;;;;;;15.09;72.69;102155.59;5007998;28;20037;-52
2022/07/02 06:20:05;;;;;;;6.97;3.65;;;;;;;15.18;72.69;102154.94;5007289;28;20103;-51
2022/07/02 06:22:31;;;;;;;6.65;4.05;;;;;;;15.24;72.37;102155.09;5010114;28;20018;-52
2022/07/02 06:24:57;;;;;;;8.57;3.63;;;;;;;15.32;71.08;102155.28;5020376;28;20109;-53
2022/07/02 06:27:22;;;;;;;9.82;3.45;;;;;;;15.42;71.63;102151.16;5007634;28;20030;-52
2022/07/02 06:29:48;;;;;;;7.45;2.97;;;;;;;15.51;70.30;102153.09;5007962;28;20034;-53
2022/07/02 06:32:17;;;;;;;7.15;3.00;;;;;;;15.60;69.83;102159.47;5016578;28;20040;-51
2022/07/02 06:34:43;;;;;;;7.50;3.10;;;;;;;15.72;67.79;102164.13;5011562;28;21456;-51
2022/07/02 06:37:09;;;;;;;5.13;2.65;;;;;;;15.82;67.33;102168.78;5008529;28;20034;-52
2022/07/02 06:39:35;;;;;;;5.90;2.67;;;;;;;15.92;67.23;102176.91;5007998;28;20028;-51
2022/07/02 06:42:18;;;;;;;6.30;2.85;;;;;;;15.97;64.53;102167.34;5014388;28;20473;-50
2022/07/02 06:44:44;;;;;;;7.40;3.05;;;;;;;16.03;64.66;102167.50;5006071;28;20024;-50
2022/07/02 06:47:09;;;;;;;5.63;2.80;;;;;;;16.07;64.97;102163.19;5009680;28;20261;-52
2022/07/02 06:49:35;;;;;;;6.25;2.58;;;;;;;16.11;65.79;102168.56;5009167;28;20105;-52
2022/07/02 06:52:00;;;;;;;7.32;2.67;;;;;;;16.16;66.44;102166.94;5009892;28;20282;-52
2022/07/02 06:54:26;;;;;;;6.90;2.50;;;;;;;16.24;66.29;102169.72;5008615;28;20102;-51
2022/07/02 06:56:51;;;;;;;4.90;2.33;;;;;;;16.33;64.75;102159.38;5017900;28;20409;-51
2022/07/02 06:59:17;;;;;;;5.88;2.50;;;;;;;16.42;65.64;102155.16;5019445;28;20126;-51
2022/07/02 07:01:42;;;;;;;7.00;3.00;;;;;;;16.49;65.36;102160.56;5009153;28;20674;-51
2022/07/02 07:04:07;;;;;;;9.65;3.10;;;;;;;16.52;65.36;102163.31;5013751;28;20428;-51
2022/07/02 07:06:36;;;;;;;6.40;2.10;;;;;;;16.56;64.13;102166.00;5015810;28;20121;-53
2022/07/02 07:09:02;;;;;;;4.15;1.90;;;;;;;16.61;61.72;102159.06;5009977;28;20014;-52
2022/07/02 07:11:27;;;;;;;4.90;1.63;;;;;;;16.71;59.01;102166.25;5020723;28;20413;-52
2022/07/02 07:13:53;;;;;;;5.22;1.77;;;;;;;16.77;61.63;102162.88;5024977;28;20036;-52
2022/07/02 07:16:18;;;;;;;4.43;1.92;;;;;;;16.81;62.91;102160.31;5014222;28;20025;-56
2022/07/02 07:18:59;;;;;;;5.68;1.95;;;;;;;16.89;63.83;102164.88;5013156;28;20125;-56
2022/07/02 07:21:24;;;;;;;5.35;1.60;;;;;;;16.93;60.24;102162.34;5007213;28;20036;-56
2022/07/02 07:23:49;;;;;;;4.32;1.55;;;;;;;17.01;59.36;102163.34;5008050;28;20034;-56
2022/07/02 07:26:15;;;;;;;5.25;1.67;;;;;;;17.09;59.32;102162.59;5020705;28;20040;-56
2022/07/02 07:28:40;;;;;;;2.85;1.58;;;;;;;17.17;59.60;102161.88;5019591;28;20122;-56
2022/07/02 07:31:06;;;;;;;5.57;1.80;;;;;;;17.23;61.20;102165.50;5016542;28;20412;-56
2022/07/02 07:33:31;;;;;;;5.90;1.80;;;;;;;17.30;59.07;102162.97;5024172;28;20473;-56
2022/07/02 07:35:57;;;;;;;3.88;2.08;;;;;;;17.35;59.53;102165.69;5006776;28;20112;-55
2022/07/02 07:38:22;;;;;;;4.68;1.60;;;;;;;17.41;60.05;102159.63;5014009;28;20025;-56
2022/07/02 07:40:48;;;;;;;5.93;1.88;;;;;;;17.46;60.14;102169.41;5010667;28;20034;-56
2022/07/02 07:43:13;;;;;;;4.03;2.03;;;;;;;17.54;61.48;102170.41;5017858;28;20033;-56
2022/07/02 07:45:38;;;;;;;5.45;1.80;;;;;;;17.60;59.63;102168.72;5026920;28;20080;-56
2022/07/02 07:48:04;;;;;;;5.47;1.92;;;;;;;17.69;61.56;102172.41;5012057;28;20039;-56
2022/07/02 07:50:29;;;;;;;6.25;1.70;;;;;;;17.75;60.85;102171.59;5019471;28;20029;-56
2022/07/02 07:52:55;;;;;;;5.88;2.05;;;;;;;17.83;60.84;102159.44;5019077;28;20025;-56
2022/07/02 07:55:20;;;;;;;4.75;2.00;;;;;;;17.90;59.88;102156.06;5010127;28;20211;-56
2022/07/02 07:57:45;;;;;;;5.07;2.17;;;;;;;17.98;59.08;102150.00;5016600;28;20112;-56
2022/07/02 08:00:11;;;;;;;5.20;2.08;;;;;;;18.05;60.96;102158.00;5016210;28;20057;-56
2022/07/02 08:02:36;;;;;;;5.28;1.88;;;;;;;18.10;60.62;102158.06;5013776;28;20164;-56
2022/07/02 08:05:02;;;;;;;5.97;1.92;;;;;;;18.12;61.75;102164.28;5010881;28;20037;-56
2022/07/02 08:07:27;;;;;;;6.63;2.08;;;;;;;18.17;60.90;102151.13;5020190;28;20021;-56
2022/07/02 08:09:54;;;;;;;4.53;2.50;;;;;;;18.29;61.16;102158.31;5013779;28;20427;-56
2022/07/02 08:12:22;;;;;;;7.75;3.58;;;;;;;18.35;59.49;102150.47;5012108;28;20021;-56
2022/07/02 08:14:48;;;;;;;4.63;2.10;;;;;;;18.38;57.73;102148.78;5012536;28;20034;-57
2022/07/02 08:17:14;;;;;;;4.75;1.92;;;;;;;18.43;59.45;102148.81;5011061;28;20539;-53
2022/07/02 08:19:39;;;;;;;7.35;2.65;;;;;;;18.54;59.34;102149.84;5012354;28;20028;-52
2022/07/02 08:22:05;;;;;;;5.95;2.10;;;;;;;18.58;59.72;102151.66;5010378;28;20034;-53
2022/07/02 08:24:30;;;;;;;4.07;2.00;;;;;;;18.63;58.71;102149.06;5012968;28;20037;-53
2022/07/02 08:26:56;;;;;;;10.43;2.10;;;;;;;18.68;59.12;102142.06;5021482;28;20041;-51
2022/07/02 08:29:21;;;;;;;3.53;1.80;;;;;;;18.74;58.44;102141.22;5011454;28;20044;-53
2022/07/02 08:31:46;;;;;;;5.47;2.10;;;;;;;18.90;58.29;102143.22;5023089;28;20057;-53
2022/07/02 08:34:12;;;;;;;5.85;2.38;;;;;;;18.99;57.94;102144.16;5012630;28;20029;-53
2022/07/02 08:36:37;;;;;;;5.95;2.00;;;;;;;19.02;56.38;102136.28;5011228;28;20036;-53
2022/07/02 08:39:02;;;;;;;5.47;2.13;;;;;;;19.09;57.34;102135.47;5012311;28;20029;-52
2022/07/02 08:41:28;;;;;;;4.03;1.90;;;;;;;19.12;56.37;102140.78;5012022;28;20032;-53
2022/07/02 08:43:56;;;;;;;6.95;2.30;;;;;;;19.16;55.35;102139.03;5012223;28;20061;-52
2022/07/02 08:46:24;;;;;;;3.92;1.90;;;;;;;19.22;57.29;102131.16;5011029;28;20112;-52
2022/07/02 08:48:50;;;;;;;4.72;1.92;;;;;;;19.29;57.96;102130.31;5011302;28;20026;-53
2022/07/02 08:51:20;;;;;;;5.78;2.20;;;;;;;19.36;58.68;102131.28;5011094;28;20118;-53
2022/07/02 08:53:47;;;;;;;5.90;2.25;;;;;;;19.45;58.21;102126.03;5008873;28;20272;-53
2022/07/02 08:56:13;;;;;;;5.80;2.30;;;;;;;19.57;58.58;102131.44;5009930;28;20030;-52
2022/07/02 08:58:39;;;;;;;6.45;2.30;;;;;;;19.62;56.65;102121.78;4998732;28;20060;-52
2022/07/02 09:01:06;;;;;;;5.40;2.53;;;;;;;19.75;56.81;102124.50;5011439;28;20040;-52
2022/07/02 09:03:32;;;;;;;6.82;2.60;;;;;;;19.88;56.92;102126.34;5010936;28;20100;-51
2022/07/02 09:05:57;;;;;;;6.63;2.58;;;;;;;19.98;56.61;102124.66;5010761;28;20120;-53
2022/07/02 09:08:24;;;;;;;5.70;2.20;;;;;;;20.05;57.48;102123.81;5011328;28;20104;-52
2022/07/02 09:10:52;;;;;;;4.70;2.40;;;;;;;20.13;57.02;102121.19;5011640;28;20209;-51
2022/07/02 09:13:18;;;;;;;6.40;2.60;;;;;;;20.19;56.34;102115.94;5010786;28;20033;-53
2022/07/02 09:15:45;;;;;;;5.15;2.60;;;;;;;20.22;54.20;102113.28;5010697;28;20109;-53
2022/07/02 09:18:11;;;;;;;4.25;2.10;;;;;;;20.29;54.77;102106.25;5010383;28;20053;-51
2022/07/02 09:20:37;;;;;;;8.68;2.50;;;;;;;20.33;54.86;102108.94;5011355;28;20033;-53
2022/07/02 09:23:08;;;;;;;4.25;2.38;;;;;;;20.40;55.58;102112.47;5011530;28;20034;-53
2022/07/02 09:25:33;;;;;;;5.88;2.60;;;;;;;20.47;55.32;102102.78;5011437;28;20030;-53
2022/07/02 09:28:03;;;;;;;7.10;2.60;;;;;;;20.55;56.41;102097.50;5011136;28;20030;-53
2022/07/02 09:30:30;;;;;;;6.60;2.10;;;;;;;20.62;54.90;102100.19;5011091;28;20026;-52
2022/07/02 09:35:40;;;;;;;5.07;2.10;;;;;;;20.77;53.53;102091.41;5010245;28;20121;-52
2022/07/02 09:38:10;;;;;;;9.93;2.38;;;;;;;20.83;52.52;102094.03;5011125;28;20105;-53
2022/07/02 09:40:37;;;;;;;5.03;2.50;;;;;;;20.95;54.34;102094.94;5011391;28;20050;-53
2022/07/02 09:43:02;;;;;;;5.85;2.33;;;;;;;21.06;54.23;102086.97;5011094;28;20036;-52
2022/07/02 09:45:28;;;;;;;6.00;2.20;;;;;;;21.18;53.20;102073.75;5010987;28;20022;-52
2022/07/02 09:47:53;;;;;;;7.43;2.63;;;;;;;21.23;54.41;102073.72;5009186;28;20036;-56
2022/07/02 09:50:20;;;;;;;5.30;2.47;;;;;;;21.27;54.55;102079.03;5010070;28;20493;-57
2022/07/02 09:52:51;;;;;;;4.55;2.25;;;;;;;21.37;55.30;102071.94;5010736;28;20021;-56
2022/07/02 09:55:31;;;;;;;4.70;2.33;;;;;;;21.41;54.99;102076.34;5010736;28;20028;-56
2022/07/02 09:58:01;;;;;;;4.72;2.50;;;;;;;21.48;53.63;102067.50;5010684;28;20057;-57
2022/07/02 10:00:29;;;;;;;5.97;2.25;;;;;;;21.57;56.35;102061.31;5013984;28;21114;-56
2022/07/02 10:02:57;;;;;;;5.13;2.87;;;;;;;21.67;54.97;102073.69;5009718;28;20032;-60
2022/07/02 10:05:33;;;;;;;3.90;2.40;;;;;;;21.82;55.14;102069.22;5010495;28;20053;-56
2022/07/02 10:08:00;;;;;;;6.78;2.40;;;;;;;21.83;51.22;102068.31;5019344;28;20099;-57
2022/07/02 10:10:38;;;;;;;8.75;2.55;;;;;;;21.88;52.84;102061.22;5008300;28;20036;-57
2022/07/02 10:13:03;;;;;;;6.18;2.40;;;;;;;21.97;53.03;102066.50;5013734;28;20038;-57
2022/07/02 10:15:31;;;;;;;5.43;2.30;;;;;;;22.03;48.84;102058.50;5018726;28;20058;-57
2022/07/02 10:17:57;;;;;;;5.20;2.05;;;;;;;22.03;49.65;102055.84;5010494;28;20068;-52
2022/07/02 10:20:23;;;;;;;5.53;1.90;;;;;;;21.98;48.16;102060.28;5009474;28;20053;-53
2022/07/02 10:22:52;;;;;;;7.00;1.90;;;;;;;21.98;50.50;102049.66;5013323;28;20026;-53
2022/07/02 10:25:18;;;;;;;4.40;2.30;;;;;;;22.08;52.06;102044.34;5011512;28;20030;-51
2022/07/02 10:27:46;;;;;;;5.13;2.00;;;;;;;22.10;50.24;102056.72;5021225;28;20021;-53
2022/07/02 10:30:12;;;;;;;6.38;2.30;;;;;;;22.13;49.84;102048.72;5011869;28;20162;-51
2022/07/02 10:33:01;;;;;;;4.45;2.00;;;;;;;22.11;48.75;102050.50;5010447;28;20079;-52
2022/07/02 10:35:27;;;;;;;5.20;1.90;;;;;;;22.06;49.63;102053.19;5011354;28;20034;-52
2022/07/02 10:37:57;;;;;;;4.68;1.92;;;;;;;22.03;50.91;102042.56;5008524;28;20049;-51
2022/07/02 10:40:23;;;;;;;4.53;2.03;;;;;;;22.03;50.63;102041.72;5013787;28;20113;-53
2022/07/02 10:42:50;;;;;;;5.72;2.20;;;;;;;22.02;50.23;102048.75;5008056;28;20064;-53
2022/07/02 10:45:18;;;;;;;5.10;2.28;;;;;;;22.03;48.36;102049.66;5020302;28;20113;-52
2022/07/02 10:48:02;;;;;;;6.32;2.00;;;;;;;22.04;50.45;102044.34;5013186;28;20076;-52
2022/07/02 10:50:39;;;;;;;4.70;1.90;;;;;;;22.00;50.67;102047.91;5013417;28;20038;-52
2022/07/02 10:53:20;;;;;;;4.15;1.90;;;;;;;21.98;49.54;102046.13;5013138;28;20076;-53
2022/07/02 10:55:52;;;;;;;3.85;1.73;;;;;;;21.94;48.89;102039.06;5011331;28;20036;-53
2022/07/02 10:58:31;;;;;;;5.32;1.90;;;;;;;21.89;49.45;102042.63;5013144;28;20029;-52
2022/07/02 11:01:18;;;;;;;3.92;1.65;;;;;;;21.91;48.72;102031.13;5002980;28;20045;-52
2022/07/02 11:03:53;;;;;;;5.25;2.13;;;;;;;21.96;48.86;102040.84;5013413;28;20080;-52
2022/07/02 11:06:32;;;;;;;4.25;1.80;;;;;;;22.03;49.72;102026.66;5012904;28;20527;-52
2022/07/02 11:08:59;;;;;;;4.63;1.70;;;;;;;22.11;51.05;102031.91;5013514;28;20022;-53
2022/07/02 11:11:34;;;;;;;3.83;1.70;;;;;;;22.15;50.75;102027.47;5011937;28;20036;-53
2022/07/02 11:14:07;;;;;;;4.75;1.70;;;;;;;22.16;49.89;102029.22;5013558;28;20026;-52
2022/07/02 11:16:39;;;;;;;4.15;1.73;;;;;;;22.14;48.03;102031.03;5011747;28;20041;-53
2022/07/02 11:19:15;;;;;;;4.93;1.80;;;;;;;22.12;48.91;102032.81;5013271;28;20045;-53
2022/07/02 11:21:41;;;;;;;4.25;1.80;;;;;;;22.14;48.83;102025.72;5013004;28;20028;-55
2022/07/02 11:24:07;;;;;;;5.88;1.70;;;;;;;22.15;49.75;102022.19;5013666;28;20029;-51
2022/07/02 11:26:32;;;;;;;2.78;1.40;;;;;;;22.14;48.09;102026.56;5013586;28;20025;-57
2022/07/02 11:29:04;;;;;;;7.00;1.80;;;;;;;22.16;48.46;102019.50;5012095;28;20453;-57